Time;durP1;ratioP1;P1;durP2;ratioP2;P2;SDS_P1;SDS_P2;PMS_P1;PMS_P2;Temp;Humidity;BMP_temperature;BMP_pressure;BME280_temperature;BME280_humidity;BME280_pressure;Samples;Min_cycle;Max_cycle;Signal;HPM_P1;HPM_P2
2023/08/31 00:01:49;;;;;;;;;6.33;4.00;;;;;20.27;100.00;100901.84;5062613;28;63219;-73
2023/08/31 00:04:14;;;;;;;;;6.00;4.33;;;;;20.26;100.00;100905.44;5067612;28;47362;-73
2023/08/31 00:06:40;;;;;;;;;8.33;5.00;;;;;20.26;100.00;100908.13;5074564;27;45459;-74
2023/08/31 00:09:09;;;;;;;;;5.67;4.67;;;;;20.27;100.00;100912.56;5070511;28;45480;-73
2023/08/31 00:11:37;;;;;;;;;4.00;4.00;;;;;20.20;100.00;100916.34;5065623;27;45261;-73
2023/08/31 00:14:03;;;;;;;;;5.67;4.00;;;;;20.23;100.00;100912.69;5059433;27;47389;-73
2023/08/31 00:16:30;;;;;;;;;3.67;3.67;;;;;20.25;100.00;100919.78;5064402;28;45429;-74
2023/08/31 00:18:58;;;;;;;;;2.33;2.33;;;;;20.26;100.00;100910.81;5076932;27;45290;-73
2023/08/31 00:21:24;;;;;;;;;4.67;3.00;;;;;20.30;100.00;100908.94;5065220;27;45480;-74
2023/08/31 00:23:49;;;;;;;;;7.00;4.00;;;;;20.30;100.00;100909.81;5069396;27;46808;-74
2023/08/31 00:26:14;;;;;;;;;2.67;2.67;;;;;20.31;100.00;100908.00;5062614;27;45412;-73
2023/08/31 00:28:42;;;;;;;;;6.67;2.00;;;;;20.24;100.00;100909.97;5069361;27;63875;-73
2023/08/31 00:31:08;;;;;;;;;6.00;4.00;;;;;20.30;100.00;100907.13;5069931;27;45564;-73
2023/08/31 00:33:33;;;;;;;;;3.33;2.00;;;;;20.31;100.00;100900.84;5073691;27;46992;-74
2023/08/31 00:36:01;;;;;;;;;10.00;3.00;;;;;20.30;100.00;100893.72;5070645;27;67758;-73
2023/08/31 00:38:27;;;;;;;;;3.33;3.00;;;;;20.29;100.00;100886.56;5065287;27;45276;-73
2023/08/31 00:40:53;;;;;;;;;8.33;3.00;;;;;20.29;100.00;100889.25;5072245;27;45562;-73
2023/08/31 00:43:18;;;;;;;;;5.00;2.00;;;;;20.28;100.00;100894.66;5076288;28;47257;-73
2023/08/31 00:45:45;;;;;;;;;3.00;2.00;;;;;20.26;100.00;100900.09;5066209;27;45453;-73
2023/08/31 00:48:12;;;;;;;;;5.67;3.67;;;;;20.29;100.00;100899.09;5067299;28;45311;-73
2023/08/31 00:50:37;;;;;;;;;3.00;3.00;;;;;20.30;100.00;100898.19;5073530;28;45614;-73
2023/08/31 00:53:03;;;;;;;;;4.00;3.00;;;;;20.27;100.00;100892.91;5072591;27;45461;-73
2023/08/31 00:55:29;;;;;;;;;3.00;3.00;;;;;20.25;100.00;100886.72;5074400;28;45453;-74
2023/08/31 00:57:55;;;;;;;;;2.67;2.67;;;;;20.24;100.00;100888.53;5064545;28;45447;-73
2023/08/31 01:00:23;;;;;;;;;5.67;2.67;;;;;20.24;100.00;100895.66;5067395;27;45287;-74
2023/08/31 01:02:58;;;;;;;;;3.67;3.00;;;;;20.21;100.00;100883.25;5076061;28;47479;-74
2023/08/31 01:05:26;;;;;;;;;4.00;3.00;;;;;20.22;100.00;100890.34;5072535;28;45469;-73
2023/08/31 01:08:14;;;;;;;;;3.33;2.00;;;;;20.20;100.00;100886.84;5075096;28;45287;-74
2023/08/31 01:11:24;;;;;;;;;5.00;4.00;;;;;20.21;100.00;100887.72;5077132;28;45584;-73
2023/08/31 01:14:03;;;;;;;;;4.67;3.33;;;;;20.19;100.00;100895.81;5074852;28;46721;-74
2023/08/31 01:16:30;;;;;;;;;6.00;3.00;;;;;20.17;100.00;100891.41;5076479;27;45448;-73
2023/08/31 01:18:56;;;;;;;;;1.67;1.33;;;;;20.18;100.00;100894.03;5071437;27;67563;-73
2023/08/31 01:21:35;;;;;;;;;1.33;1.33;;;;;20.16;100.00;100901.25;5068449;28;61900;-73
2023/08/31 01:24:01;;;;;;;;;4.00;3.00;;;;;20.18;100.00;100901.19;5070312;28;46884;-74
2023/08/31 01:26:27;;;;;;;;;4.00;2.33;;;;;20.18;100.00;100898.53;5075282;28;45441;-73
2023/08/31 01:28:55;;;;;;;;;2.67;2.00;;;;;20.15;100.00;100902.19;5063529;27;45337;-73
2023/08/31 01:31:20;;;;;;;;;2.67;2.33;;;;;20.12;100.00;100905.81;5070510;28;45601;-74
2023/08/31 01:33:46;;;;;;;;;4.00;3.00;;;;;20.17;100.00;100908.38;5071604;27;45545;-73
2023/08/31 01:36:24;;;;;;;;;3.00;2.00;;;;;20.18;100.00;100904.75;5070689;28;45513;-74
2023/08/31 01:38:58;;;;;;;;;4.00;2.00;;;;;20.20;100.00;100913.66;5061027;28;45441;-73
2023/08/31 01:41:25;;;;;;;;;5.00;2.00;;;;;20.20;100.00;100912.78;5066906;28;45465;-73
2023/08/31 01:43:52;;;;;;;;;5.67;2.33;;;;;20.24;100.00;100911.75;5062415;28;46363;-74
2023/08/31 01:46:18;;;;;;;;;3.00;2.67;;;;;20.20;100.00;100904.75;5072279;28;45236;-73
2023/08/31 01:48:43;;;;;;;;;4.33;3.67;;;;;20.18;100.00;100910.13;5075618;27;65064;-72
2023/08/31 01:51:09;;;;;;;;;2.00;2.00;;;;;20.19;100.00;100900.28;5064496;27;45443;-73
2023/08/31 01:53:35;;;;;;;;;5.00;5.00;;;;;20.17;100.00;100900.31;5065897;28;46515;-73
2023/08/31 01:56:00;;;;;;;;;5.00;2.67;;;;;20.23;100.00;100902.84;5065680;27;45279;-74
2023/08/31 01:58:25;;;;;;;;;3.00;3.00;;;;;20.23;100.00;100907.31;5060197;27;45614;-73
2023/08/31 02:00:51;;;;;;;;;3.00;3.00;;;;;20.23;100.00;100897.47;5077298;27;45491;-73
2023/08/31 02:03:16;;;;;;;;;4.00;2.00;;;;;20.24;100.00;100909.06;5062556;28;47219;-73
2023/08/31 02:05:41;;;;;;;;;2.67;2.00;;;;;20.22;100.00;100902.88;5069240;28;65070;-74
2023/08/31 02:08:07;;;;;;;;;1.00;1.00;;;;;20.16;100.00;100895.88;5071172;27;56669;-73
2023/08/31 02:10:32;;;;;;;;;3.67;3.00;;;;;20.13;100.00;100890.59;5072297;28;63960;-74
2023/08/31 02:12:57;;;;;;;;;4.33;3.00;;;;;20.13;100.00;100890.59;5064904;27;47413;-74
2023/08/31 02:15:23;;;;;;;;;2.33;2.33;;;;;20.13;100.00;100888.81;5076382;28;65446;-73
2023/08/31 02:17:48;;;;;;;;;3.67;3.00;;;;;20.12;100.00;100894.22;5073559;27;45351;-73
2023/08/31 02:20:14;;;;;;;;;2.00;2.00;;;;;20.12;100.00;100899.56;5068114;28;45670;-74
2023/08/31 02:22:39;;;;;;;;;2.67;2.67;;;;;20.10;100.00;100890.69;5061826;28;47363;-73
2023/08/31 02:25:05;;;;;;;;;5.33;2.00;;;;;20.09;100.00;100900.53;5070103;27;45448;-73
2023/08/31 02:27:31;;;;;;;;;2.33;2.33;;;;;20.08;100.00;100881.81;5072548;28;45492;-74
2023/08/31 02:29:57;;;;;;;;;6.33;2.00;;;;;20.11;100.00;100892.47;5074712;27;63785;-73
2023/08/31 02:32:22;;;;;;;;;3.67;2.00;;;;;20.15;100.00;100886.09;5070824;27;46849;-72
2023/08/31 02:34:47;;;;;;;;;3.00;3.00;;;;;20.12;100.00;100895.09;5062425;28;67489;-73
2023/08/31 02:37:13;;;;;;;;;4.00;2.33;;;;;20.12;100.00;100897.75;5068499;27;62017;-73
2023/08/31 02:39:39;;;;;;;;;2.33;2.00;;;;;20.14;100.00;100895.06;5070580;28;45541;-73
2023/08/31 02:42:05;;;;;;;;;5.00;2.33;;;;;20.15;100.00;100902.19;5076468;28;46579;-73
2023/08/31 02:44:31;;;;;;;;;4.67;3.00;;;;;20.12;100.00;100902.25;5066338;27;45307;-73
2023/08/31 02:46:56;;;;;;;;;3.00;3.00;;;;;20.15;100.00;100905.75;5067729;27;45322;-74
2023/08/31 02:49:21;;;;;;;;;3.67;2.00;;;;;20.17;100.00;100904.81;5072696;27;56606;-73
2023/08/31 02:51:49;;;;;;;;;3.67;3.67;;;;;20.18;100.00;100902.06;5061759;27;64927;-73
2023/08/31 02:54:14;;;;;;;;;4.00;2.67;;;;;20.14;100.00;100908.47;5060468;27;45455;-73
2023/08/31 02:56:39;;;;;;;;;4.67;2.67;;;;;20.11;100.00;100896.00;5061638;28;45130;-73
2023/08/31 02:59:05;;;;;;;;;4.67;3.00;;;;;20.15;100.00;100905.75;5070808;27;60086;-73
2023/08/31 03:01:30;;;;;;;;;5.00;3.00;;;;;20.19;100.00;100906.53;5069183;27;63621;-73
2023/08/31 03:03:55;;;;;;;;;4.00;3.00;;;;;20.20;100.00;100896.69;5075491;27;67686;-73
2023/08/31 03:06:20;;;;;;;;;8.67;5.00;;;;;20.18;100.00;100901.19;5071503;27;58381;-74
2023/08/31 03:08:46;;;;;;;;;6.00;2.00;;;;;20.20;100.00;100900.25;5066830;27;45464;-73
2023/08/31 03:11:14;;;;;;;;;6.00;4.00;;;;;20.19;100.00;100900.28;5075677;27;67986;-74
2023/08/31 03:13:39;;;;;;;;;3.33;2.67;;;;;20.19;100.00;100903.88;5072416;27;46273;-73
2023/08/31 03:16:04;;;;;;;;;6.00;3.67;;;;;20.18;100.00;100898.53;5074530;27;59152;-74
2023/08/31 03:18:30;;;;;;;;;5.00;3.00;;;;;20.18;100.00;100898.53;5074648;27;45413;-73
2023/08/31 03:20:56;;;;;;;;;6.00;3.33;;;;;20.18;100.00;100896.72;5076183;27;46400;-73
2023/08/31 03:23:21;;;;;;;;;4.67;2.00;;;;;20.20;100.00;100894.88;5072160;27;45660;-74
2023/08/31 03:25:47;;;;;;;;;4.00;4.00;;;;;20.18;100.00;100893.16;5073808;27;45566;-74
2023/08/31 03:28:12;;;;;;;;;3.00;3.00;;;;;20.18;100.00;100890.47;5075752;27;61344;-74
2023/08/31 03:30:37;;;;;;;;;3.00;3.00;;;;;20.18;100.00;100886.00;5069444;28;47381;-73
2023/08/31 03:33:03;;;;;;;;;4.00;2.67;;;;;20.16;100.00;100885.16;5071100;27;59446;-73
2023/08/31 03:35:28;;;;;;;;;4.00;3.00;;;;;20.19;100.00;100882.41;5067544;28;45423;-74
2023/08/31 03:37:54;;;;;;;;;5.00;3.00;;;;;20.17;100.00;100881.56;5069777;27;45369;-74
2023/08/31 03:40:20;;;;;;;;;4.33;3.00;;;;;20.14;100.00;100881.66;5075085;28;46215;-73
2023/08/31 03:42:45;;;;;;;;;6.00;4.00;;;;;20.13;100.00;100883.47;5066897;28;45478;-73
2023/08/31 03:45:11;;;;;;;;;3.00;3.00;;;;;20.11;100.00;100887.97;5066622;28;58133;-73
2023/08/31 03:47:36;;;;;;;;;3.33;2.00;;;;;20.11;100.00;100887.09;5073863;27;45512;-73
2023/08/31 03:50:01;;;;;;;;;5.67;3.67;;;;;20.09;100.00;100879.09;5071723;28;57716;-73
2023/08/31 03:52:27;;;;;;;;;2.00;2.00;;;;;20.08;100.00;100881.81;5075104;27;66508;-73
2023/08/31 03:54:52;;;;;;;;;3.33;3.33;;;;;20.11;100.00;100877.25;5057769;27;45391;-73
2023/08/31 03:57:18;;;;;;;;;3.00;3.00;;;;;20.11;100.00;100873.69;5072587;28;45414;-73
2023/08/31 03:59:43;;;;;;;;;5.33;3.67;;;;;20.11;100.00;100873.69;5068474;27;46559;-73
2023/08/31 04:02:08;;;;;;;;;3.00;3.00;;;;;20.08;100.00;100884.47;5061853;27;64889;-74
2023/08/31 04:04:34;;;;;;;;;3.00;3.00;;;;;20.06;100.00;100884.53;5075010;27;65719;-73
2023/08/31 04:06:59;;;;;;;;;9.00;5.00;;;;;20.02;100.00;100890.91;5073761;27;45464;-74
2023/08/31 04:09:25;;;;;;;;;3.33;3.00;;;;;20.05;100.00;100898.88;5067270;27;46265;-73
2023/08/31 04:11:50;;;;;;;;;3.33;3.33;;;;;19.97;100.00;100890.13;5073068;27;67991;-73
2023/08/31 04:14:17;;;;;;;;;11.33;3.33;;;;;19.97;100.00;100897.31;5075823;27;45462;-73
2023/08/31 04:16:42;;;;;;;;;2.00;2.00;;;;;19.95;100.00;100897.34;5072371;27;45246;-74
2023/08/31 04:19:07;;;;;;;;;3.00;3.00;;;;;19.95;100.00;100889.31;5071993;28;46250;-74
2023/08/31 04:21:33;;;;;;;;;6.00;3.00;;;;;19.91;100.00;100890.31;5070818;27;66453;-73
2023/08/31 04:24:00;;;;;;;;;5.00;3.00;;;;;19.86;100.00;100887.75;5065823;27;51933;-73
2023/08/31 04:26:25;;;;;;;;;4.00;3.00;;;;;19.82;100.00;100883.41;5070802;27;45567;-73
2023/08/31 04:28:50;;;;;;;;;5.00;2.00;;;;;19.84;100.00;100888.72;5075233;28;47368;-73
2023/08/31 04:31:16;;;;;;;;;7.00;4.00;;;;;19.81;100.00;100891.47;5074054;27;45516;-73
2023/08/31 04:33:41;;;;;;;;;6.00;3.00;;;;;19.83;100.00;100895.88;5068295;27;64411;-74
2023/08/31 04:36:06;;;;;;;;;3.67;3.33;;;;;19.81;100.00;100895.03;5070340;28;58241;-73
2023/08/31 04:38:33;;;;;;;;;7.33;4.00;;;;;19.82;100.00;100898.59;5063870;28;46212;-74
2023/08/31 04:40:59;;;;;;;;;8.67;3.00;;;;;19.81;100.00;100896.81;5069840;27;45426;-73
2023/08/31 04:43:25;;;;;;;;;3.67;3.67;;;;;19.80;100.00;100903.09;5069472;27;45803;-73
2023/08/31 04:45:51;;;;;;;;;4.33;3.00;;;;;19.81;100.00;100916.47;5071330;27;45415;-73
2023/08/31 04:48:17;;;;;;;;;2.33;2.33;;;;;19.78;100.00;100921.03;5069747;27;46991;-73
2023/08/31 04:50:42;;;;;;;;;4.33;2.33;;;;;19.79;100.00;100918.31;5069716;27;45404;-73
2023/08/31 04:53:07;;;;;;;;;4.67;3.33;;;;;19.79;100.00;100907.59;5066868;27;62259;-73
2023/08/31 04:55:33;;;;;;;;;5.67;2.00;;;;;19.81;100.00;100915.56;5076420;27;45318;-74
2023/08/31 04:57:58;;;;;;;;;6.00;3.00;;;;;19.80;100.00;100916.50;5074306;27;63106;-74
2023/08/31 05:00:23;;;;;;;;;4.00;3.00;;;;;19.83;100.00;100917.31;5075160;27;45419;-73
2023/08/31 05:02:49;;;;;;;;;4.33;3.00;;;;;19.82;100.00;100910.19;5075136;27;62165;-73
2023/08/31 05:05:14;;;;;;;;;5.33;3.00;;;;;19.81;100.00;100916.47;5072963;27;60750;-73
2023/08/31 05:07:39;;;;;;;;;2.33;2.00;;;;;19.80;100.00;100920.06;5071849;27;46494;-75
2023/08/31 05:10:06;;;;;;;;;5.33;5.00;;;;;19.80;100.00;100925.41;5071312;27;45273;-75
2023/08/31 05:12:31;;;;;;;;;3.00;2.00;;;;;19.82;100.00;100922.72;5073042;27;45385;-71
2023/08/31 05:14:56;;;;;;;;;4.33;0.00;;;;;19.79;100.00;100918.31;5069400;28;60721;-72
2023/08/31 05:17:22;;;;;;;;;2.00;2.00;;;;;19.79;100.00;100921.00;5073297;27;67218;-74
2023/08/31 05:19:47;;;;;;;;;4.00;3.00;;;;;19.76;100.00;100922.84;5064231;27;45300;-73
2023/08/31 05:22:12;;;;;;;;;2.00;2.00;;;;;19.71;100.00;100924.75;5073719;27;45597;-72
2023/08/31 05:24:38;;;;;;;;;4.33;2.00;;;;;19.72;100.00;100929.22;5071667;28;45693;-73
2023/08/31 05:27:03;;;;;;;;;6.33;2.00;;;;;19.70;100.00;100925.69;5068434;28;45656;-75
2023/08/31 05:29:29;;;;;;;;;6.67;2.33;;;;;19.66;100.00;100922.22;5072755;28;45591;-72
2023/08/31 05:31:55;;;;;;;;;3.67;2.33;;;;;19.64;100.00;100934.75;5071619;27;64964;-72
2023/08/31 05:34:24;;;;;;;;;6.00;4.00;;;;;19.68;100.00;100930.22;5073892;27;60930;-72
2023/08/31 05:36:50;;;;;;;;;4.00;3.00;;;;;19.69;100.00;100927.50;5068558;28;46353;-72
2023/08/31 05:39:16;;;;;;;;;6.00;3.00;;;;;19.65;100.00;100935.66;5077735;27;56232;-74
2023/08/31 05:41:42;;;;;;;;;4.00;4.00;;;;;19.64;100.00;100937.44;5070207;28;45550;-72
2023/08/31 05:44:08;;;;;;;;;2.00;1.33;;;;;19.67;100.00;100932.03;5065965;28;45386;-72
2023/08/31 05:46:33;;;;;;;;;2.67;2.67;;;;;19.71;100.00;100935.47;5073248;28;45691;-72
2023/08/31 05:48:59;;;;;;;;;4.33;3.00;;;;;19.72;100.00;100942.63;5068531;27;45537;-70
2023/08/31 05:51:24;;;;;;;;;3.33;2.00;;;;;19.74;100.00;100938.97;5072016;28;65583;-72
2023/08/31 05:53:50;;;;;;;;;5.00;2.00;;;;;19.72;100.00;100940.81;5069730;28;45414;-74
2023/08/31 05:56:15;;;;;;;;;7.00;2.00;;;;;19.73;100.00;100939.91;5070133;27;46621;-71
2023/08/31 05:58:40;;;;;;;;;5.33;2.00;;;;;19.74;100.00;100941.66;5070155;27;68772;-71
2023/08/31 06:01:06;;;;;;;;;6.00;2.00;;;;;19.76;100.00;100946.97;5063495;28;59473;-70
2023/08/31 06:03:32;;;;;;;;;6.67;2.67;;;;;19.77;100.00;100948.75;5069047;28;45599;-70
2023/08/31 06:05:59;;;;;;;;;3.67;3.00;;;;;19.79;100.00;100954.94;5065050;28;46286;-71
2023/08/31 06:08:24;;;;;;;;;3.00;3.00;;;;;19.79;100.00;100954.94;5062781;28;45398;-71
2023/08/31 06:10:50;;;;;;;;;3.33;2.00;;;;;19.80;100.00;100949.53;5065534;28;45410;-71
2023/08/31 06:13:16;;;;;;;;;4.67;2.00;;;;;19.82;100.00;100950.41;5065302;28;45472;-70
2023/08/31 06:15:41;;;;;;;;;4.00;2.67;;;;;19.87;100.00;100956.53;5069088;27;46713;-71
2023/08/31 06:18:07;;;;;;;;;2.00;2.00;;;;;19.91;100.00;100954.63;5071672;27;45390;-71
2023/08/31 06:20:32;;;;;;;;;2.00;2.00;;;;;19.99;100.00;100952.66;5068877;28;45244;-70
2023/08/31 06:22:59;;;;;;;;;6.67;4.00;;;;;20.05;100.00;100948.91;5058247;28;49644;-69
2023/08/31 06:25:24;;;;;;;;;3.00;3.00;;;;;20.10;100.00;100949.69;5063901;27;45714;-69
2023/08/31 06:27:50;;;;;;;;;4.33;2.67;;;;;20.17;100.00;100945.03;5060590;27;45460;-69
2023/08/31 06:30:16;;;;;;;;;7.00;4.00;;;;;20.17;100.00;100956.63;5057910;27;45531;-68
2023/08/31 06:32:43;;;;;;;;;2.00;2.00;;;;;20.14;100.00;100951.38;5060909;27;47329;-69
2023/08/31 06:35:09;;;;;;;;;3.00;3.00;;;;;20.17;100.00;100962.00;5066601;28;46463;-69
2023/08/31 06:37:34;;;;;;;;;4.00;2.00;;;;;20.14;100.00;100954.03;5063558;27;63225;-68
2023/08/31 06:39:59;;;;;;;;;3.67;3.00;;;;;20.13;100.00;100954.94;5063935;27;58415;-69
2023/08/31 06:42:25;;;;;;;;;3.67;3.67;;;;;20.13;100.00;100960.31;5070288;27;60525;-68
2023/08/31 06:44:51;;;;;;;;;4.67;2.67;;;;;20.13;100.00;100963.91;5063318;27;71896;-69
2023/08/31 06:47:17;;;;;;;;;2.00;2.00;;;;;20.12;100.00;100963.91;5059557;27;45446;-70
2023/08/31 06:49:42;;;;;;;;;6.00;3.00;;;;;20.14;100.00;100970.13;5064691;28;46330;-68
2023/08/31 06:52:08;;;;;;;;;5.33;2.33;;;;;20.18;100.00;100960.19;5064127;27;45419;-70
2023/08/31 06:54:34;;;;;;;;;8.67;4.00;;;;;20.13;100.00;100965.66;5065285;27;45480;-68
2023/08/31 06:56:59;;;;;;;;;4.67;3.67;;;;;20.16;100.00;100968.28;5066755;27;45461;-69
2023/08/31 06:59:24;;;;;;;;;3.00;3.00;;;;;20.21;100.00;100979.75;5060572;27;45397;-68
2023/08/31 07:01:50;;;;;;;;;8.00;4.00;;;;;20.25;100.00;100975.22;5066303;28;59555;-69
2023/08/31 07:04:15;;;;;;;;;3.67;3.67;;;;;20.28;100.00;100976.00;5067286;28;69593;-68
2023/08/31 07:06:41;;;;;;;;;4.67;2.00;;;;;20.33;100.00;100982.09;5060953;28;45413;-71
2023/08/31 07:09:08;;;;;;;;;4.33;2.67;;;;;20.38;100.00;100972.13;5059535;28;45645;-69
2023/08/31 07:11:33;;;;;;;;;4.33;3.00;;;;;20.40;100.00;100975.69;5066467;27;45523;-69
2023/08/31 07:13:59;;;;;;;;;5.33;3.67;;;;;20.42;100.00;100981.88;5069980;27;46356;-69
2023/08/31 07:16:24;;;;;;;;;7.33;2.67;;;;;20.41;100.00;100976.56;5064339;27;45722;-70
2023/08/31 07:18:50;;;;;;;;;4.00;3.00;;;;;20.46;100.00;100984.47;5067569;28;45722;-69
2023/08/31 07:21:15;;;;;;;;;4.67;3.00;;;;;20.51;100.00;100986.16;5068592;28;61196;-68
2023/08/31 07:23:40;;;;;;;;;4.67;3.67;;;;;20.51;100.00;100985.28;5056750;28;69305;-70
2023/08/31 07:26:07;;;;;;;;;4.67;3.00;;;;;20.57;100.00;100990.47;5064602;27;45594;-68
2023/08/31 07:28:32;;;;;;;;;5.00;4.00;;;;;20.58;100.00;100992.22;5066699;28;45417;-69
2023/08/31 07:31:05;;;;;;;;;6.33;3.00;;;;;20.62;100.00;100989.41;5063037;28;45577;-70
2023/08/31 07:33:35;;;;;;;;;5.00;2.00;;;;;20.62;100.00;100994.78;5063917;28;45718;-68
2023/08/31 07:36:00;;;;;;;;;3.67;1.00;;;;;20.59;100.00;100993.97;5066428;28;45383;-69
2023/08/31 07:38:27;;;;;;;;;4.00;4.00;;;;;20.61;100.00;100994.78;5063893;27;45350;-69
2023/08/31 07:40:53;;;;;;;;;6.00;4.67;;;;;20.69;100.00;100995.47;5066655;27;45383;-69
2023/08/31 07:43:18;;;;;;;;;4.00;1.00;;;;;20.68;100.00;101001.78;5072072;28;46653;-68
2023/08/31 07:45:44;;;;;;;;;7.33;3.33;;;;;20.73;100.00;101007.00;5062493;27;68778;-71
2023/08/31 07:48:09;;;;;;;;;3.33;2.00;;;;;20.78;100.00;101008.66;5174966;22;62676;-69
2023/08/31 07:50:34;;;;;;;;;5.00;2.00;;;;;20.84;100.00;101010.28;5073074;27;58899;-68
2023/08/31 07:53:00;;;;;;;;;4.00;2.00;;;;;20.95;100.00;101005.47;5072633;27;68146;-69
2023/08/31 07:55:25;;;;;;;;;4.00;2.33;;;;;21.06;100.00;101014.09;5065432;28;53869;-68
2023/08/31 07:57:50;;;;;;;;;3.00;3.00;;;;;21.13;100.00;101002.22;5069474;28;65703;-68
2023/08/31 08:00:16;;;;;;;;;5.00;2.00;;;;;21.25;100.00;101000.97;5069019;28;53995;-69
2023/08/31 08:02:41;;;;;;;;;4.00;3.00;;;;;21.32;100.00;101005.28;5070411;28;46461;-68
2023/08/31 08:05:07;;;;;;;;;5.33;2.00;;;;;21.43;100.00;101011.19;5071359;27;45525;-69
2023/08/31 08:07:32;;;;;;;;;3.33;3.33;;;;;21.44;100.00;101018.31;5068971;27;45828;-69
2023/08/31 08:09:59;;;;;;;;;4.67;3.00;;;;;21.43;100.00;101005.84;5068157;28;59855;-69
2023/08/31 08:12:25;;;;;;;;;4.67;1.33;;;;;21.47;100.00;101000.38;5068789;28;46389;-69
2023/08/31 08:14:50;;;;;;;;;6.00;2.67;;;;;21.55;100.00;101009.06;5074591;27;45692;-68
2023/08/31 08:17:16;;;;;;;;;3.67;1.67;;;;;21.58;100.00;101000.91;5072516;28;45496;-69
2023/08/31 08:19:41;;;;;;;;;1.33;1.33;;;;;21.62;100.00;101000.72;5076846;28;45892;-68
2023/08/31 08:22:07;;;;;;;;;2.67;2.67;;;;;21.71;100.00;101004.94;5077027;28;47450;-68
2023/08/31 08:24:32;;;;;;;;;1.67;1.67;;;;;21.85;100.00;100999.13;5075621;28;45448;-68
2023/08/31 08:26:57;;;;;;;;;4.00;3.00;;;;;21.88;100.00;100997.19;5071737;28;51940;-68
2023/08/31 08:29:23;;;;;;;;;3.00;1.67;;;;;22.01;100.00;100995.00;5075575;28;45443;-70
2023/08/31 08:31:48;;;;;;;;;3.00;1.67;;;;;22.08;100.00;101001.03;5062823;28;68722;-68
2023/08/31 08:34:13;;;;;;;;;6.00;2.00;;;;;22.09;100.00;100997.41;5076316;27;57355;-68
2023/08/31 08:36:39;;;;;;;;;6.67;3.67;;;;;22.09;100.00;101000.97;5075654;27;63487;-69
2023/08/31 08:39:04;;;;;;;;;6.67;3.00;;;;;22.15;100.00;101000.81;5077000;28;61695;-68
2023/08/31 08:41:32;;;;;;;;;4.00;3.00;;;;;22.19;100.00;101001.59;5076373;28;69728;-68
2023/08/31 08:44:03;;;;;;;;;3.00;2.00;;;;;22.23;100.00;101006.81;5089528;27;45495;-68
2023/08/31 08:46:30;;;;;;;;;3.00;1.67;;;;;22.29;100.00;101004.84;5074067;28;45345;-69
2023/08/31 08:48:56;;;;;;;;;2.00;2.00;;;;;22.33;100.00;101011.88;5072691;28;45448;-69
2023/08/31 08:51:21;;;;;;;;;1.67;1.67;;;;;22.36;99.95;101009.94;5070619;28;71385;-69
2023/08/31 08:53:47;;;;;;;;;5.67;3.00;;;;;22.38;100.00;101018.88;5072069;28;64438;-68
2023/08/31 08:56:13;;;;;;;;;3.67;1.67;;;;;22.39;99.67;101017.94;5070091;28;60924;-70
2023/08/31 08:58:38;;;;;;;;;2.67;2.33;;;;;22.42;99.48;101015.09;5073810;28;62944;-68
2023/08/31 09:01:04;;;;;;;;;4.33;2.00;;;;;22.41;99.22;101016.03;5073952;28;45508;-68
2023/08/31 09:03:29;;;;;;;;;2.67;2.00;;;;;22.36;98.43;101014.44;5073152;28;60290;-68
2023/08/31 09:05:54;;;;;;;;;1.33;1.33;;;;;22.34;99.24;101009.13;5072860;28;59622;-70
2023/08/31 09:08:27;;;;;;;;;2.00;2.00;;;;;22.38;99.09;101010.78;5073767;28;45418;-68
2023/08/31 09:10:52;;;;;;;;;1.00;1.00;;;;;22.43;98.71;101008.81;5074046;28;46552;-67
2023/08/31 09:13:18;;;;;;;;;6.33;3.00;;;;;22.49;99.96;101010.41;5067560;28;46116;-68
2023/08/31 09:15:45;;;;;;;;;3.00;2.00;;;;;22.54;100.00;101019.19;5071173;27;59973;-67
2023/08/31 09:18:23;;;;;;;;;3.00;3.00;;;;;22.57;100.00;101008.31;5074627;28;45573;-69
2023/08/31 09:20:49;;;;;;;;;2.67;2.00;;;;;22.65;100.00;101016.13;5074343;28;46445;-68
2023/08/31 09:23:15;;;;;;;;;3.33;3.00;;;;;22.62;100.00;100998.25;5075506;27;45592;-69
2023/08/31 09:25:49;;;;;;;;;3.33;3.00;;;;;22.64;100.00;101003.59;5074045;28;45556;-69
2023/08/31 09:28:15;;;;;;;;;2.67;2.00;;;;;22.72;100.00;101005.06;5073946;28;45463;-71
2023/08/31 09:30:41;;;;;;;;;2.00;2.00;;;;;22.81;100.00;101009.25;5070233;28;45778;-68
2023/08/31 09:33:08;;;;;;;;;3.00;2.00;;;;;22.92;100.00;101009.75;5076740;28;45338;-69
2023/08/31 09:35:38;;;;;;;;;7.00;5.00;;;;;23.04;99.91;100999.47;5075582;27;45492;-69
2023/08/31 09:38:07;;;;;;;;;6.00;2.67;;;;;23.05;98.50;100982.34;5068218;28;45531;-70
2023/08/31 09:40:32;;;;;;;;;1.33;0.00;;;;;22.95;98.24;100995.28;5068564;28;47315;-70
2023/08/31 09:42:58;;;;;;;;;5.00;2.00;;;;;22.87;99.16;100990.16;5064952;28;62711;-72
2023/08/31 09:45:31;;;;;;;;;4.33;2.00;;;;;22.87;98.91;100997.38;5075454;28;45204;-70
2023/08/31 09:47:59;;;;;;;;;2.33;2.00;;;;;22.81;98.96;100995.78;5066994;28;45677;-70
2023/08/31 09:50:25;;;;;;;;;2.00;2.00;;;;;22.78;99.95;100993.19;5075838;28;45553;-70
2023/08/31 09:52:55;;;;;;;;;2.33;2.33;;;;;22.78;100.00;101000.41;5072631;28;63659;-69
2023/08/31 09:55:21;;;;;;;;;5.00;2.00;;;;;22.77;100.00;101001.34;5074860;28;45793;-69
2023/08/31 09:57:48;;;;;;;;;4.00;1.67;;;;;22.77;100.00;100994.13;5071329;28;60672;-69
2023/08/31 10:00:15;;;;;;;;;6.33;2.00;;;;;22.80;100.00;101001.19;5075109;27;45596;-71
2023/08/31 10:02:42;;;;;;;;;6.00;2.00;;;;;22.84;100.00;100992.09;5071310;27;45569;-69
2023/08/31 10:05:08;;;;;;;;;4.00;3.00;;;;;22.88;100.00;100996.47;5070636;28;45364;-69
2023/08/31 10:07:33;;;;;;;;;2.00;2.00;;;;;22.91;100.00;100993.66;5075239;27;45633;-70
2023/08/31 10:10:00;;;;;;;;;5.00;2.33;;;;;22.97;100.00;100982.66;5069544;27;69590;-71
2023/08/31 10:12:27;;;;;;;;;4.67;3.67;;;;;23.08;100.00;100985.81;5089993;27;45299;-71
2023/08/31 10:14:54;;;;;;;;;5.00;2.00;;;;;23.19;100.00;100985.41;5068368;28;45497;-69
2023/08/31 10:17:20;;;;;;;;;4.00;4.00;;;;;23.22;100.00;100983.47;5075422;28;45588;-70
2023/08/31 10:19:45;;;;;;;;;4.67;3.67;;;;;23.27;100.00;100985.97;5072731;28;45691;-70
2023/08/31 10:22:11;;;;;;;;;3.67;3.00;;;;;23.31;100.00;100978.66;5074941;28;62514;-70
2023/08/31 10:25:05;;;;;;;;;4.00;4.00;;;;;23.37;100.00;100991.88;5072672;28;65565;-72
2023/08/31 10:27:42;;;;;;;;;3.67;3.67;;;;;23.35;100.00;100991.94;5064672;28;45577;-71
2023/08/31 10:30:22;;;;;;;;;3.00;2.67;;;;;23.31;100.00;100984.03;5071696;28;47138;-71
2023/08/31 10:33:10;;;;;;;;;3.00;3.00;;;;;23.19;100.00;100982.72;5070665;27;45454;-71
2023/08/31 10:35:47;;;;;;;;;11.67;5.00;;;;;23.16;100.00;100978.31;5075229;28;45468;-71
2023/08/31 10:38:14;;;;;;;;;5.67;5.00;;;;;23.20;100.00;100979.94;5075130;28;45465;-73
2023/08/31 10:40:40;;;;;;;;;7.67;3.67;;;;;23.19;100.00;100977.31;5070517;27;45778;-75
2023/08/31 10:43:15;;;;;;;;;6.00;4.33;;;;;23.16;100.00;100983.69;5069475;28;45472;-75
2023/08/31 10:45:44;;;;;;;;;5.00;4.00;;;;;23.14;100.00;100984.69;5067810;28;45331;-73
2023/08/31 10:48:10;;;;;;;;;9.33;4.33;;;;;23.06;100.00;100982.28;5073986;28;45470;-74
2023/08/31 10:50:41;;;;;;;;;2.33;2.33;;;;;23.03;100.00;100984.25;5073536;28;45578;-73
2023/08/31 10:53:09;;;;;;;;;5.00;4.00;;;;;22.98;100.00;100976.34;5073786;27;45556;-76
2023/08/31 10:55:51;;;;;;;;;3.67;3.00;;;;;22.97;100.00;100966.50;5069843;28;45806;-74
2023/08/31 10:58:16;;;;;;;;;5.00;4.00;;;;;23.04;100.00;100962.63;5073385;28;45601;-72
2023/08/31 11:00:52;;;;;;;;;5.00;4.67;;;;;23.12;100.00;100962.34;5069653;28;68302;-72
2023/08/31 11:03:18;;;;;;;;;6.67;5.00;;;;;23.11;100.00;100965.94;5070125;28;46074;-71
2023/08/31 11:05:53;;;;;;;;;7.00;5.00;;;;;23.15;100.00;100964.91;5071637;27;61454;-71
2023/08/31 11:08:23;;;;;;;;;2.33;2.33;;;;;23.13;100.00;100961.41;5069957;27;45558;-71
2023/08/31 11:10:48;;;;;;;;;3.67;2.67;;;;;23.08;100.00;100961.56;5072245;28;46560;-73
2023/08/31 11:13:19;;;;;;;;;4.00;3.00;;;;;23.05;100.00;100960.81;5071076;27;66917;-72
2023/08/31 11:15:47;;;;;;;;;3.00;3.00;;;;;22.95;100.00;100950.38;5065872;28;45599;-71